createdAt,value
2019-05-13T00:02:59.160Z,14.20
2019-05-13T00:08:03.884Z,17.80
2019-05-13T00:13:08.300Z,18.33
2019-05-13T00:18:14.386Z,18.30
2019-05-13T00:23:19.268Z,15.73
2019-05-13T00:28:24.207Z,17.30
2019-05-13T00:33:28.705Z,23.50
2019-05-13T00:38:33.690Z,15.97
2019-05-13T00:43:38.260Z,17.50
2019-05-13T00:48:44.001Z,13.90
2019-05-13T00:53:48.533Z,20.50
2019-05-13T00:58:54.116Z,18.80
2019-05-13T01:03:58.674Z,16.13
2019-05-13T01:09:04.260Z,19.00
2019-05-13T01:14:09.830Z,14.07
2019-05-13T01:19:14.560Z,9.43
2019-05-13T01:24:19.201Z,11.40
2019-05-13T01:29:23.929Z,17.87
2019-05-13T01:34:28.499Z,13.13
2019-05-13T01:39:34.957Z,20.63
2019-05-13T01:44:39.177Z,12.10
2019-05-13T01:49:44.085Z,15.17
2019-05-13T01:54:48.577Z,16.77
2019-05-13T01:59:53.846Z,17.60
2019-05-13T02:04:58.405Z,10.73
2019-05-13T02:10:04.380Z,19.60
2019-05-13T02:15:10.352Z,16.27
2019-05-13T02:20:16.040Z,19.10
2019-05-13T02:25:20.475Z,13.90
2019-05-13T02:30:26.780Z,15.77
2019-05-13T02:35:32.573Z,13.97
2019-05-13T02:40:37.329Z,17.97
2019-05-13T02:45:43.113Z,18.23
2019-05-13T02:50:47.605Z,15.93
2019-05-13T02:55:52.655Z,15.23
2019-05-13T03:00:57.191Z,13.17
2019-05-13T03:06:02.937Z,17.90
2019-05-13T03:11:07.838Z,14.73
2019-05-13T03:16:14.015Z,15.13
2019-05-13T03:21:18.433Z,16.17
2019-05-13T03:26:23.657Z,15.53
2019-05-13T03:31:28.273Z,20.00
2019-05-13T03:36:36.216Z,15.10
2019-05-13T03:41:42.275Z,15.33
2019-05-13T03:46:49.051Z,17.90
2019-05-13T03:51:53.688Z,18.47
2019-05-13T03:56:58.341Z,18.33
2019-05-13T04:02:03.116Z,15.43
2019-05-13T04:07:07.806Z,18.67
2019-05-13T04:12:13.662Z,18.97
2019-05-13T04:17:18.243Z,15.73
2019-05-13T04:22:23.227Z,22.03
2019-05-13T04:27:28.022Z,20.13
2019-05-13T04:32:33.472Z,16.90
2019-05-13T04:37:38.341Z,23.40
2019-05-13T04:42:42.889Z,16.33
2019-05-13T04:47:47.385Z,22.93
2019-05-13T04:52:53.062Z,21.23
2019-05-13T04:57:57.681Z,15.70
2019-05-13T05:03:06.794Z,19.33
2019-05-13T05:08:42.152Z,15.70
2019-05-13T05:14:12.186Z,20.20
2019-05-13T05:20:05.105Z,18.07
2019-05-13T05:25:41.706Z,16.50
2019-05-13T05:31:24.109Z,21.83
2019-05-13T05:36:53.697Z,16.43
2019-05-13T05:41:59.046Z,18.83
2019-05-13T05:47:04.714Z,19.67
2019-05-13T05:52:12.295Z,16.30
2019-05-13T05:57:17.890Z,14.97
2019-05-13T06:02:25.383Z,14.87
2019-05-13T06:07:32.336Z,19.37
2019-05-13T06:12:36.950Z,16.87
2019-05-13T06:17:41.530Z,14.33
2019-05-13T06:22:46.031Z,21.30
2019-05-13T06:27:51.256Z,11.67
2019-05-13T06:32:56.187Z,12.03
2019-05-13T06:38:01.454Z,15.40
2019-05-13T06:43:06.218Z,11.40
2019-05-13T06:48:11.767Z,15.13
2019-05-13T06:53:16.617Z,10.40
2019-05-13T06:58:22.274Z,14.87
2019-05-13T07:03:26.952Z,11.07
2019-05-13T07:08:31.613Z,9.93
2019-05-13T07:13:36.106Z,11.87
2019-05-13T07:18:41.635Z,10.57
2019-05-13T07:23:46.316Z,9.73
2019-05-13T07:28:52.398Z,13.57
2019-05-13T07:33:57.239Z,6.67
2019-05-13T07:39:05.729Z,6.80
2019-05-13T07:44:11.860Z,8.90
2019-05-13T07:49:16.866Z,8.73
2019-05-13T07:54:22.156Z,9.53
2019-05-13T07:59:27.616Z,9.73
2019-05-13T08:04:33.422Z,7.53
2019-05-13T08:09:41.704Z,8.47
2019-05-13T08:14:45.569Z,10.80
2019-05-13T08:19:52.066Z,5.17
2019-05-13T08:24:56.187Z,4.07
2019-05-13T08:30:01.709Z,6.83
2019-05-13T08:35:12.314Z,4.60
2019-05-13T08:40:20.110Z,4.17
2019-05-13T08:45:23.706Z,2.57
2019-05-13T08:50:28.445Z,6.37
2019-05-13T08:55:32.956Z,4.23
2019-05-13T09:00:53.519Z,4.27
2019-05-13T09:05:58.236Z,3.83
2019-05-13T09:11:02.878Z,3.20
2019-05-13T09:16:07.693Z,3.70
2019-05-13T09:21:12.309Z,3.93
2019-05-13T09:26:16.774Z,4.37
2019-05-13T09:31:24.234Z,3.97
2019-05-13T09:36:28.934Z,2.87
2019-05-13T09:41:40.545Z,5.00
2019-05-13T09:46:42.199Z,4.77
2019-05-13T09:51:46.169Z,4.73
2019-05-13T09:56:51.856Z,3.83
2019-05-13T10:01:56.506Z,4.47
2019-05-13T10:07:02.466Z,2.03
2019-05-13T10:12:08.155Z,2.10
2019-05-13T10:17:14.297Z,6.10
2019-05-13T10:22:18.887Z,3.37
2019-05-13T10:27:24.047Z,2.70
2019-05-13T10:32:29.079Z,4.30
2019-05-13T10:37:33.746Z,6.17
2019-05-13T10:42:38.360Z,3.93
2019-05-13T10:47:43.008Z,5.93
2019-05-13T10:52:47.563Z,2.27
2019-05-13T10:57:52.696Z,3.93
2019-05-13T11:02:57.246Z,6.63
2019-05-13T11:08:02.156Z,5.30
2019-05-13T11:13:10.625Z,4.23
2019-05-13T11:18:18.983Z,3.30
2019-05-13T11:23:22.947Z,8.30
2019-05-13T11:28:26.228Z,2.97
2019-05-13T11:33:31.863Z,4.63
2019-05-13T11:38:36.661Z,2.27
2019-05-13T11:43:41.487Z,2.77
2019-05-13T11:48:46.086Z,5.27
2019-05-13T11:53:52.511Z,7.20
2019-05-13T11:58:56.818Z,2.50
2019-05-13T12:04:03.087Z,3.67
2019-05-13T12:09:12.723Z,4.80
2019-05-13T12:14:42.402Z,4.73
2019-05-13T12:19:22.129Z,2.70
2019-05-13T12:24:26.671Z,4.60
2019-05-13T12:29:32.112Z,6.27
2019-05-13T12:34:40.893Z,4.90
2019-05-13T12:39:43.772Z,3.10
2019-05-13T12:45:02.978Z,4.00
2019-05-13T12:49:55.075Z,4.90
2019-05-13T12:55:02.960Z,3.33
2019-05-13T13:00:07.232Z,11.73
2019-05-13T13:05:19.715Z,2.87
2019-05-13T13:10:18.368Z,4.33
2019-05-13T13:15:37.300Z,4.63
2019-05-13T13:20:29.271Z,2.70
2019-05-13T13:25:35.617Z,3.77
2019-05-13T13:30:43.860Z,3.17
2019-05-13T13:35:54.976Z,2.30
2019-05-13T13:40:53.875Z,3.23
2019-05-13T13:46:23.162Z,5.23
2019-05-13T13:51:06.293Z,4.07
2019-05-13T13:56:14.621Z,4.23
2019-05-13T14:01:20.466Z,6.97
2019-05-13T14:07:22.503Z,3.47
2019-05-13T14:11:32.964Z,3.27
2019-05-13T14:16:36.401Z,5.90
2019-05-13T14:21:42.132Z,7.77
2019-05-13T14:26:46.703Z,4.03
2019-05-13T14:31:52.154Z,4.17
2019-05-13T14:36:56.868Z,2.73
2019-05-13T14:42:02.235Z,6.40
2019-05-13T14:47:06.836Z,5.90
2019-05-13T14:52:12.101Z,5.73
2019-05-13T14:57:16.892Z,4.13
2019-05-13T15:02:22.700Z,3.30
2019-05-13T15:07:27.227Z,3.77
2019-05-13T15:12:32.446Z,6.40
2019-05-13T15:17:39.390Z,6.27
2019-05-13T15:22:44.322Z,3.17
2019-05-13T15:27:48.963Z,2.77
2019-05-13T15:32:53.458Z,2.53
2019-05-13T15:37:57.956Z,2.23
2019-05-13T15:43:02.785Z,2.63
2019-05-13T15:48:07.302Z,4.03
2019-05-13T15:53:12.747Z,5.33
2019-05-13T15:58:17.655Z,5.83
2019-05-13T16:03:22.158Z,7.47
2019-05-13T16:08:26.817Z,3.37
2019-05-13T16:13:31.983Z,5.13
2019-05-13T16:18:36.867Z,4.30
2019-05-13T16:23:42.915Z,6.23
2019-05-13T16:28:47.551Z,3.30
2019-05-13T16:33:52.319Z,2.57
2019-05-13T16:38:57.079Z,2.60
2019-05-13T16:44:01.562Z,6.10
2019-05-13T16:49:06.124Z,4.07
2019-05-13T16:54:10.644Z,1.47
2019-05-13T16:59:16.357Z,6.00
2019-05-13T17:04:21.486Z,2.23
2019-05-13T17:09:26.168Z,1.83
2019-05-13T17:14:32.234Z,5.17
2019-05-13T17:19:39.541Z,3.53
2019-05-13T17:24:44.344Z,4.80
2019-05-13T17:29:48.847Z,3.57
2019-05-13T17:34:53.443Z,1.73
2019-05-13T17:40:03.686Z,3.40
2019-05-13T17:45:11.221Z,4.97
2019-05-13T17:50:15.567Z,2.77
2019-05-13T17:55:22.072Z,2.73
2019-05-13T18:00:37.060Z,4.50
2019-05-13T18:05:42.229Z,3.00
2019-05-13T18:10:46.805Z,5.10
2019-05-13T18:15:52.515Z,5.93
2019-05-13T18:20:57.018Z,2.63
2019-05-13T18:26:02.058Z,2.70
2019-05-13T18:31:08.792Z,2.67
2019-05-13T18:36:13.217Z,4.43
2019-05-13T18:41:17.702Z,4.37
2019-05-13T18:46:23.095Z,3.60
2019-05-13T18:51:27.608Z,2.70
2019-05-13T18:56:33.737Z,4.33
2019-05-13T19:01:38.594Z,6.07
2019-05-13T19:06:45.482Z,4.40
2019-05-13T19:11:52.511Z,4.80
2019-05-13T19:16:57.001Z,3.67
2019-05-13T19:22:02.150Z,3.97
2019-05-13T19:27:06.959Z,4.50
2019-05-13T19:32:12.449Z,5.27
2019-05-13T19:37:17.750Z,6.47
2019-05-13T19:42:22.496Z,4.80
2019-05-13T19:47:26.911Z,5.03
2019-05-13T19:52:32.015Z,7.30
2019-05-13T19:57:36.744Z,4.63
2019-05-13T20:02:42.163Z,4.20
2019-05-13T20:07:47.006Z,4.27
2019-05-13T20:12:51.455Z,5.13
2019-05-13T20:17:55.850Z,3.17
2019-05-13T20:23:01.380Z,6.30
2019-05-13T20:28:06.271Z,8.03
2019-05-13T20:33:11.920Z,2.80
2019-05-13T20:38:16.631Z,6.03
2019-05-13T20:43:22.494Z,6.30
2019-05-13T20:48:27.094Z,5.17
2019-05-13T20:53:31.633Z,7.73
2019-05-13T20:58:36.190Z,4.67
2019-05-13T21:03:41.995Z,4.53
2019-05-13T21:08:46.517Z,3.40
2019-05-13T21:13:51.739Z,5.13
2019-05-13T21:18:56.269Z,6.67
2019-05-13T21:24:01.556Z,8.17
2019-05-13T21:29:06.154Z,6.10
2019-05-13T21:34:11.860Z,4.13
2019-05-13T21:39:16.549Z,4.00
2019-05-13T21:44:21.117Z,6.00
2019-05-13T21:49:25.569Z,5.73
2019-05-13T21:54:33.220Z,4.53
2019-05-13T21:59:36.242Z,5.90
2019-05-13T22:04:41.226Z,6.77
2019-05-13T22:09:45.953Z,7.23
2019-05-13T22:14:51.749Z,6.60
2019-05-13T22:19:56.539Z,6.93
2019-05-13T22:25:01.976Z,4.27
2019-05-13T22:30:07.971Z,6.67
2019-05-13T22:35:13.220Z,5.43
2019-05-13T22:40:17.766Z,6.10
2019-05-13T22:45:22.275Z,4.97
2019-05-13T22:50:26.760Z,3.27
2019-05-13T22:55:31.337Z,7.20
2019-05-13T23:00:35.913Z,4.10
2019-05-13T23:05:41.634Z,4.73
2019-05-13T23:10:46.200Z,3.70
2019-05-13T23:15:51.648Z,5.43
2019-05-13T23:20:56.217Z,4.80
2019-05-13T23:26:00.717Z,3.37
2019-05-13T23:31:05.290Z,3.73
2019-05-13T23:36:11.892Z,4.10
2019-05-13T23:41:15.955Z,4.77
2019-05-13T23:46:22.279Z,5.07
2019-05-13T23:51:26.845Z,6.50
2019-05-13T23:56:31.330Z,5.10
